sensor_id;sensor_type;location;lat;lon;timestamp;P1;durP1;ratioP1;P2;durP2;ratioP2
78716;SDS011;68045;50.042;14.432;2024-03-29T00:00:03;4.80;;;2.20;;
78716;SDS011;68045;50.042;14.432;2024-03-29T00:04:33;3.30;;;1.63;;
78716;SDS011;68045;50.042;14.432;2024-03-29T00:08:34;5.28;;;2.20;;
78716;SDS011;68045;50.042;14.432;2024-03-29T00:12:36;3.20;;;1.88;;
78716;SDS011;68045;50.042;14.432;2024-03-29T00:16:37;2.58;;;1.40;;
78716;SDS011;68045;50.042;14.432;2024-03-29T00:20:38;3.00;;;1.75;;
78716;SDS011;68045;50.042;14.432;2024-03-29T00:24:39;6.05;;;2.20;;
78716;SDS011;68045;50.042;14.432;2024-03-29T00:28:40;4.13;;;2.00;;
78716;SDS011;68045;50.042;14.432;2024-03-29T00:32:41;4.47;;;1.75;;
78716;SDS011;68045;50.042;14.432;2024-03-29T00:36:42;3.40;;;2.05;;
78716;SDS011;68045;50.042;14.432;2024-03-29T00:40:43;5.63;;;2.20;;
78716;SDS011;68045;50.042;14.432;2024-03-29T00:44:44;4.20;;;2.25;;
78716;SDS011;68045;50.042;14.432;2024-03-29T00:48:46;5.15;;;2.30;;
78716;SDS011;68045;50.042;14.432;2024-03-29T00:52:47;4.95;;;2.42;;
78716;SDS011;68045;50.042;14.432;2024-03-29T00:56:49;4.90;;;2.10;;
78716;SDS011;68045;50.042;14.432;2024-03-29T01:00:50;5.13;;;2.25;;
78716;SDS011;68045;50.042;14.432;2024-03-29T01:04:52;5.82;;;2.65;;
78716;SDS011;68045;50.042;14.432;2024-03-29T01:08:53;4.18;;;2.22;;
78716;SDS011;68045;50.042;14.432;2024-03-29T01:12:54;4.10;;;1.92;;
78716;SDS011;68045;50.042;14.432;2024-03-29T01:16:55;4.20;;;2.15;;
78716;SDS011;68045;50.042;14.432;2024-03-29T01:20:56;2.92;;;1.90;;
78716;SDS011;68045;50.042;14.432;2024-03-29T01:24:57;4.35;;;2.13;;
78716;SDS011;68045;50.042;14.432;2024-03-29T01:28:58;3.63;;;1.98;;
78716;SDS011;68045;50.042;14.432;2024-03-29T01:32:59;5.10;;;2.33;;
78716;SDS011;68045;50.042;14.432;2024-03-29T01:37:00;5.50;;;2.25;;
78716;SDS011;68045;50.042;14.432;2024-03-29T01:41:01;3.25;;;2.03;;
78716;SDS011;68045;50.042;14.432;2024-03-29T01:45:03;4.30;;;2.30;;
78716;SDS011;68045;50.042;14.432;2024-03-29T01:49:06;4.25;;;2.10;;
78716;SDS011;68045;50.042;14.432;2024-03-29T01:53:07;4.07;;;2.17;;
78716;SDS011;68045;50.042;14.432;2024-03-29T01:57:09;3.55;;;2.17;;
78716;SDS011;68045;50.042;14.432;2024-03-29T02:01:11;4.65;;;2.20;;
78716;SDS011;68045;50.042;14.432;2024-03-29T02:05:13;4.45;;;2.40;;
78716;SDS011;68045;50.042;14.432;2024-03-29T02:09:15;5.28;;;2.30;;
78716;SDS011;68045;50.042;14.432;2024-03-29T02:13:16;4.43;;;2.38;;
78716;SDS011;68045;50.042;14.432;2024-03-29T02:17:16;4.25;;;2.17;;
78716;SDS011;68045;50.042;14.432;2024-03-29T02:21:17;5.75;;;2.97;;
78716;SDS011;68045;50.042;14.432;2024-03-29T02:25:19;3.22;;;2.03;;
78716;SDS011;68045;50.042;14.432;2024-03-29T02:29:20;3.80;;;2.40;;
78716;SDS011;68045;50.042;14.432;2024-03-29T02:33:21;4.63;;;2.38;;
78716;SDS011;68045;50.042;14.432;2024-03-29T02:37:22;6.63;;;2.72;;
78716;SDS011;68045;50.042;14.432;2024-03-29T02:41:23;4.18;;;2.63;;
78716;SDS011;68045;50.042;14.432;2024-03-29T02:45:26;7.55;;;2.92;;
78716;SDS011;68045;50.042;14.432;2024-03-29T02:49:27;5.35;;;2.60;;
78716;SDS011;68045;50.042;14.432;2024-03-29T02:53:28;5.55;;;2.40;;
78716;SDS011;68045;50.042;14.432;2024-03-29T02:57:31;3.72;;;2.08;;
78716;SDS011;68045;50.042;14.432;2024-03-29T03:01:32;4.15;;;2.47;;
78716;SDS011;68045;50.042;14.432;2024-03-29T03:05:33;4.95;;;2.38;;
78716;SDS011;68045;50.042;14.432;2024-03-29T03:09:37;4.82;;;2.90;;
78716;SDS011;68045;50.042;14.432;2024-03-29T03:13:56;3.95;;;2.50;;
78716;SDS011;68045;50.042;14.432;2024-03-29T03:17:57;5.03;;;2.75;;
78716;SDS011;68045;50.042;14.432;2024-03-29T03:21:58;5.15;;;2.30;;
78716;SDS011;68045;50.042;14.432;2024-03-29T03:26:00;4.78;;;2.45;;
78716;SDS011;68045;50.042;14.432;2024-03-29T03:30:04;6.78;;;3.05;;
78716;SDS011;68045;50.042;14.432;2024-03-29T03:34:06;3.40;;;2.13;;
78716;SDS011;68045;50.042;14.432;2024-03-29T03:38:07;3.70;;;2.53;;
78716;SDS011;68045;50.042;14.432;2024-03-29T03:42:09;4.57;;;2.47;;
78716;SDS011;68045;50.042;14.432;2024-03-29T03:46:10;4.07;;;2.53;;
78716;SDS011;68045;50.042;14.432;2024-03-29T03:50:11;3.50;;;2.25;;
78716;SDS011;68045;50.042;14.432;2024-03-29T03:54:11;4.18;;;2.35;;
78716;SDS011;68045;50.042;14.432;2024-03-29T03:58:13;3.80;;;1.98;;
78716;SDS011;68045;50.042;14.432;2024-03-29T04:02:14;4.18;;;2.20;;
78716;SDS011;68045;50.042;14.432;2024-03-29T04:06:15;4.38;;;2.53;;
78716;SDS011;68045;50.042;14.432;2024-03-29T04:10:16;4.22;;;2.40;;
78716;SDS011;68045;50.042;14.432;2024-03-29T04:14:17;4.60;;;2.50;;
78716;SDS011;68045;50.042;14.432;2024-03-29T04:18:18;5.75;;;2.72;;
78716;SDS011;68045;50.042;14.432;2024-03-29T04:22:19;3.47;;;2.17;;
78716;SDS011;68045;50.042;14.432;2024-03-29T04:26:20;3.92;;;2.38;;
78716;SDS011;68045;50.042;14.432;2024-03-29T04:30:21;3.95;;;2.65;;
78716;SDS011;68045;50.042;14.432;2024-03-29T04:34:22;5.55;;;2.53;;
78716;SDS011;68045;50.042;14.432;2024-03-29T04:38:23;4.65;;;2.45;;
78716;SDS011;68045;50.042;14.432;2024-03-29T04:42:25;3.67;;;2.30;;
78716;SDS011;68045;50.042;14.432;2024-03-29T04:46:26;4.28;;;2.30;;
78716;SDS011;68045;50.042;14.432;2024-03-29T04:50:29;3.58;;;2.20;;
78716;SDS011;68045;50.042;14.432;2024-03-29T04:54:30;3.90;;;2.25;;
78716;SDS011;68045;50.042;14.432;2024-03-29T04:58:32;4.03;;;2.58;;
78716;SDS011;68045;50.042;14.432;2024-03-29T05:02:33;3.83;;;2.10;;
78716;SDS011;68045;50.042;14.432;2024-03-29T05:06:34;4.25;;;2.45;;
78716;SDS011;68045;50.042;14.432;2024-03-29T05:10:35;5.15;;;2.65;;
78716;SDS011;68045;50.042;14.432;2024-03-29T05:14:36;3.90;;;2.33;;
78716;SDS011;68045;50.042;14.432;2024-03-29T05:18:37;3.90;;;2.42;;
78716;SDS011;68045;50.042;14.432;2024-03-29T05:22:38;5.32;;;2.35;;
78716;SDS011;68045;50.042;14.432;2024-03-29T05:26:39;4.43;;;2.35;;
78716;SDS011;68045;50.042;14.432;2024-03-29T05:30:40;3.35;;;2.17;;
78716;SDS011;68045;50.042;14.432;2024-03-29T05:34:41;5.22;;;2.35;;
78716;SDS011;68045;50.042;14.432;2024-03-29T05:38:42;4.22;;;2.58;;
78716;SDS011;68045;50.042;14.432;2024-03-29T05:42:43;4.32;;;2.55;;
78716;SDS011;68045;50.042;14.432;2024-03-29T05:46:44;4.13;;;2.38;;
78716;SDS011;68045;50.042;14.432;2024-03-29T05:50:45;6.18;;;2.92;;
78716;SDS011;68045;50.042;14.432;2024-03-29T05:54:46;5.00;;;2.35;;
78716;SDS011;68045;50.042;14.432;2024-03-29T05:58:47;4.05;;;2.20;;
78716;SDS011;68045;50.042;14.432;2024-03-29T06:02:48;3.50;;;1.98;;
78716;SDS011;68045;50.042;14.432;2024-03-29T06:06:49;6.93;;;2.88;;
78716;SDS011;68045;50.042;14.432;2024-03-29T06:10:50;3.33;;;2.05;;
78716;SDS011;68045;50.042;14.432;2024-03-29T06:14:53;4.70;;;2.45;;
78716;SDS011;68045;50.042;14.432;2024-03-29T06:19:12;4.10;;;2.10;;
78716;SDS011;68045;50.042;14.432;2024-03-29T06:23:13;3.30;;;2.10;;
78716;SDS011;68045;50.042;14.432;2024-03-29T06:27:15;5.25;;;2.42;;
78716;SDS011;68045;50.042;14.432;2024-03-29T06:31:17;4.65;;;2.35;;
78716;SDS011;68045;50.042;14.432;2024-03-29T06:35:18;3.92;;;1.90;;
78716;SDS011;68045;50.042;14.432;2024-03-29T06:39:22;4.38;;;1.98;;
78716;SDS011;68045;50.042;14.432;2024-03-29T06:43:23;6.07;;;1.88;;
78716;SDS011;68045;50.042;14.432;2024-03-29T06:47:24;5.78;;;2.03;;
78716;SDS011;68045;50.042;14.432;2024-03-29T06:51:29;3.53;;;1.98;;
78716;SDS011;68045;50.042;14.432;2024-03-29T06:55:31;4.18;;;1.80;;
78716;SDS011;68045;50.042;14.432;2024-03-29T06:59:32;2.70;;;1.63;;
78716;SDS011;68045;50.042;14.432;2024-03-29T07:03:33;2.38;;;1.63;;
78716;SDS011;68045;50.042;14.432;2024-03-29T07:07:34;3.13;;;1.58;;
78716;SDS011;68045;50.042;14.432;2024-03-29T07:11:35;2.60;;;1.63;;
78716;SDS011;68045;50.042;14.432;2024-03-29T07:15:37;2.65;;;1.50;;
78716;SDS011;68045;50.042;14.432;2024-03-29T07:19:37;5.47;;;1.70;;
78716;SDS011;68045;50.042;14.432;2024-03-29T07:23:38;2.60;;;1.58;;
78716;SDS011;68045;50.042;14.432;2024-03-29T07:27:40;2.65;;;1.42;;
78716;SDS011;68045;50.042;14.432;2024-03-29T07:31:41;3.17;;;1.63;;
78716;SDS011;68045;50.042;14.432;2024-03-29T07:35:44;3.10;;;1.30;;
78716;SDS011;68045;50.042;14.432;2024-03-29T07:39:44;2.78;;;1.48;;
78716;SDS011;68045;50.042;14.432;2024-03-29T07:47:53;3.22;;;1.70;;
78716;SDS011;68045;50.042;14.432;2024-03-29T07:51:54;2.88;;;1.20;;
78716;SDS011;68045;50.042;14.432;2024-03-29T07:55:54;2.65;;;1.30;;
78716;SDS011;68045;50.042;14.432;2024-03-29T07:59:56;1.77;;;1.13;;
78716;SDS011;68045;50.042;14.432;2024-03-29T08:03:57;2.67;;;1.33;;
78716;SDS011;68045;50.042;14.432;2024-03-29T08:07:58;2.40;;;1.45;;
78716;SDS011;68045;50.042;14.432;2024-03-29T08:11:58;2.70;;;1.33;;
78716;SDS011;68045;50.042;14.432;2024-03-29T08:16:00;2.65;;;1.27;;
78716;SDS011;68045;50.042;14.432;2024-03-29T08:20:01;2.20;;;1.02;;
78716;SDS011;68045;50.042;14.432;2024-03-29T08:24:04;3.47;;;1.50;;
78716;SDS011;68045;50.042;14.432;2024-03-29T08:28:05;3.13;;;1.45;;
78716;SDS011;68045;50.042;14.432;2024-03-29T08:32:06;4.57;;;1.83;;
78716;SDS011;68045;50.042;14.432;2024-03-29T08:36:08;2.20;;;1.38;;
78716;SDS011;68045;50.042;14.432;2024-03-29T08:40:09;6.20;;;2.38;;
78716;SDS011;68045;50.042;14.432;2024-03-29T08:44:11;2.72;;;1.50;;
78716;SDS011;68045;50.042;14.432;2024-03-29T08:48:12;4.30;;;1.63;;
78716;SDS011;68045;50.042;14.432;2024-03-29T08:52:13;2.22;;;1.23;;
78716;SDS011;68045;50.042;14.432;2024-03-29T09:00:16;4.85;;;1.15;;
78716;SDS011;68045;50.042;14.432;2024-03-29T09:04:17;1.40;;;0.95;;
78716;SDS011;68045;50.042;14.432;2024-03-29T09:08:18;3.42;;;1.40;;
78716;SDS011;68045;50.042;14.432;2024-03-29T09:12:19;2.70;;;1.25;;
78716;SDS011;68045;50.042;14.432;2024-03-29T09:16:20;3.20;;;1.30;;
78716;SDS011;68045;50.042;14.432;2024-03-29T09:20:21;1.67;;;1.00;;
78716;SDS011;68045;50.042;14.432;2024-03-29T09:24:22;1.30;;;1.00;;
78716;SDS011;68045;50.042;14.432;2024-03-29T09:28:26;2.40;;;1.20;;
78716;SDS011;68045;50.042;14.432;2024-03-29T09:32:27;2.00;;;1.15;;
78716;SDS011;68045;50.042;14.432;2024-03-29T09:36:29;2.60;;;1.40;;
78716;SDS011;68045;50.042;14.432;2024-03-29T09:40:30;2.60;;;1.10;;
78716;SDS011;68045;50.042;14.432;2024-03-29T09:44:33;2.90;;;1.13;;
78716;SDS011;68045;50.042;14.432;2024-03-29T09:48:37;1.70;;;1.05;;
78716;SDS011;68045;50.042;14.432;2024-03-29T09:52:38;2.45;;;1.30;;
78716;SDS011;68045;50.042;14.432;2024-03-29T09:56:41;1.73;;;1.17;;
78716;SDS011;68045;50.042;14.432;2024-03-29T10:00:42;1.58;;;1.10;;
78716;SDS011;68045;50.042;14.432;2024-03-29T10:04:44;2.95;;;1.30;;
78716;SDS011;68045;50.042;14.432;2024-03-29T10:08:47;1.23;;;0.90;;
78716;SDS011;68045;50.042;14.432;2024-03-29T10:12:49;1.25;;;1.00;;
78716;SDS011;68045;50.042;14.432;2024-03-29T10:16:52;2.65;;;1.40;;
78716;SDS011;68045;50.042;14.432;2024-03-29T10:21:00;2.70;;;1.50;;
78716;SDS011;68045;50.042;14.432;2024-03-29T10:25:02;2.13;;;1.30;;
78716;SDS011;68045;50.042;14.432;2024-03-29T10:29:03;1.92;;;1.35;;
78716;SDS011;68045;50.042;14.432;2024-03-29T10:33:05;3.00;;;1.50;;
78716;SDS011;68045;50.042;14.432;2024-03-29T10:37:06;1.65;;;1.00;;
78716;SDS011;68045;50.042;14.432;2024-03-29T10:41:07;1.77;;;1.10;;
78716;SDS011;68045;50.042;14.432;2024-03-29T10:45:09;2.28;;;1.13;;
78716;SDS011;68045;50.042;14.432;2024-03-29T10:49:10;2.13;;;1.15;;
78716;SDS011;68045;50.042;14.432;2024-03-29T10:53:12;1.30;;;1.20;;
78716;SDS011;68045;50.042;14.432;2024-03-29T11:01:23;2.30;;;1.30;;
78716;SDS011;68045;50.042;14.432;2024-03-29T11:05:25;2.85;;;1.00;;
78716;SDS011;68045;50.042;14.432;2024-03-29T11:09:30;2.75;;;1.10;;
78716;SDS011;68045;50.042;14.432;2024-03-29T11:13:50;2.22;;;1.10;;
78716;SDS011;68045;50.042;14.432;2024-03-29T11:17:53;1.75;;;1.10;;
78716;SDS011;68045;50.042;14.432;2024-03-29T11:21:55;1.52;;;0.93;;
78716;SDS011;68045;50.042;14.432;2024-03-29T11:25:57;1.15;;;0.90;;
78716;SDS011;68045;50.042;14.432;2024-03-29T11:30:01;1.20;;;0.98;;
78716;SDS011;68045;50.042;14.432;2024-03-29T11:34:03;1.17;;;0.82;;
78716;SDS011;68045;50.042;14.432;2024-03-29T11:38:04;3.35;;;1.00;;
78716;SDS011;68045;50.042;14.432;2024-03-29T11:42:05;1.55;;;1.00;;
78716;SDS011;68045;50.042;14.432;2024-03-29T11:46:07;18.67;;;1.55;;
78716;SDS011;68045;50.042;14.432;2024-03-29T11:50:09;6.65;;;0.90;;
78716;SDS011;68045;50.042;14.432;2024-03-29T11:54:11;2.65;;;1.02;;
78716;SDS011;68045;50.042;14.432;2024-03-29T11:58:12;2.70;;;1.00;;
78716;SDS011;68045;50.042;14.432;2024-03-29T12:02:14;1.88;;;1.10;;
78716;SDS011;68045;50.042;14.432;2024-03-29T12:06:15;1.98;;;0.70;;
78716;SDS011;68045;50.042;14.432;2024-03-29T12:10:17;1.73;;;1.00;;
78716;SDS011;68045;50.042;14.432;2024-03-29T12:14:18;1.42;;;0.90;;
78716;SDS011;68045;50.042;14.432;2024-03-29T12:18:20;1.42;;;0.80;;
78716;SDS011;68045;50.042;14.432;2024-03-29T12:22:22;3.95;;;1.20;;
78716;SDS011;68045;50.042;14.432;2024-03-29T12:26:22;5.15;;;1.30;;
78716;SDS011;68045;50.042;14.432;2024-03-29T12:30:24;1.33;;;1.02;;
78716;SDS011;68045;50.042;14.432;2024-03-29T12:34:25;1.25;;;0.90;;
78716;SDS011;68045;50.042;14.432;2024-03-29T12:38:26;2.08;;;1.27;;
78716;SDS011;68045;50.042;14.432;2024-03-29T12:42:27;1.67;;;1.20;;
78716;SDS011;68045;50.042;14.432;2024-03-29T12:46:29;1.08;;;0.95;;
78716;SDS011;68045;50.042;14.432;2024-03-29T12:50:32;2.03;;;1.30;;
78716;SDS011;68045;50.042;14.432;2024-03-29T12:54:34;1.27;;;1.10;;
78716;SDS011;68045;50.042;14.432;2024-03-29T12:58:35;1.40;;;1.08;;
78716;SDS011;68045;50.042;14.432;2024-03-29T13:02:38;2.50;;;1.17;;
78716;SDS011;68045;50.042;14.432;2024-03-29T13:06:39;2.85;;;1.30;;
78716;SDS011;68045;50.042;14.432;2024-03-29T13:10:40;5.72;;;1.25;;
78716;SDS011;68045;50.042;14.432;2024-03-29T13:14:41;2.00;;;1.30;;
78716;SDS011;68045;50.042;14.432;2024-03-29T13:18:42;1.60;;;1.00;;
78716;SDS011;68045;50.042;14.432;2024-03-29T13:22:43;1.45;;;1.00;;
78716;SDS011;68045;50.042;14.432;2024-03-29T13:26:46;1.33;;;1.08;;
78716;SDS011;68045;50.042;14.432;2024-03-29T13:30:47;2.00;;;1.02;;
78716;SDS011;68045;50.042;14.432;2024-03-29T13:34:50;2.95;;;1.40;;
78716;SDS011;68045;50.042;14.432;2024-03-29T13:38:51;2.30;;;1.50;;
78716;SDS011;68045;50.042;14.432;2024-03-29T13:42:52;1.48;;;1.20;;
78716;SDS011;68045;50.042;14.432;2024-03-29T13:46:55;1.13;;;1.00;;
78716;SDS011;68045;50.042;14.432;2024-03-29T13:50:55;1.92;;;1.20;;
78716;SDS011;68045;50.042;14.432;2024-03-29T13:54:57;2.17;;;1.33;;
78716;SDS011;68045;50.042;14.432;2024-03-29T13:58:58;1.48;;;1.10;;
78716;SDS011;68045;50.042;14.432;2024-03-29T14:02:59;1.55;;;1.10;;
78716;SDS011;68045;50.042;14.432;2024-03-29T14:07:01;1.95;;;1.05;;
78716;SDS011;68045;50.042;14.432;2024-03-29T14:11:03;2.58;;;1.30;;
78716;SDS011;68045;50.042;14.432;2024-03-29T14:15:04;1.58;;;1.30;;
78716;SDS011;68045;50.042;14.432;2024-03-29T14:19:07;2.00;;;1.10;;
78716;SDS011;68045;50.042;14.432;2024-03-29T14:23:08;3.42;;;1.02;;
78716;SDS011;68045;50.042;14.432;2024-03-29T14:27:12;2.05;;;1.10;;
78716;SDS011;68045;50.042;14.432;2024-03-29T14:31:13;1.27;;;1.00;;
78716;SDS011;68045;50.042;14.432;2024-03-29T14:35:14;3.08;;;1.30;;
78716;SDS011;68045;50.042;14.432;2024-03-29T14:39:15;1.58;;;1.00;;
78716;SDS011;68045;50.042;14.432;2024-03-29T14:43:18;2.13;;;1.20;;
78716;SDS011;68045;50.042;14.432;2024-03-29T14:47:19;1.88;;;1.10;;
78716;SDS011;68045;50.042;14.432;2024-03-29T14:51:20;1.17;;;1.08;;
78716;SDS011;68045;50.042;14.432;2024-03-29T14:55:22;2.33;;;1.20;;
78716;SDS011;68045;50.042;14.432;2024-03-29T14:59:24;2.83;;;1.33;;
78716;SDS011;68045;50.042;14.432;2024-03-29T15:03:24;1.08;;;1.00;;
78716;SDS011;68045;50.042;14.432;2024-03-29T15:07:25;2.10;;;1.23;;
78716;SDS011;68045;50.042;14.432;2024-03-29T15:11:26;2.25;;;1.10;;
78716;SDS011;68045;50.042;14.432;2024-03-29T15:15:28;1.88;;;1.25;;
78716;SDS011;68045;50.042;14.432;2024-03-29T15:19:29;1.50;;;1.10;;
78716;SDS011;68045;50.042;14.432;2024-03-29T15:23:30;2.78;;;1.60;;
78716;SDS011;68045;50.042;14.432;2024-03-29T15:27:31;1.75;;;1.20;;
78716;SDS011;68045;50.042;14.432;2024-03-29T15:31:50;1.52;;;1.15;;
78716;SDS011;68045;50.042;14.432;2024-03-29T15:35:51;2.03;;;1.30;;
78716;SDS011;68045;50.042;14.432;2024-03-29T15:39:53;1.90;;;1.10;;
78716;SDS011;68045;50.042;14.432;2024-03-29T15:43:54;2.58;;;1.60;;
78716;SDS011;68045;50.042;14.432;2024-03-29T15:47:55;2.28;;;1.13;;
78716;SDS011;68045;50.042;14.432;2024-03-29T15:51:56;1.52;;;1.10;;
78716;SDS011;68045;50.042;14.432;2024-03-29T15:55:57;2.38;;;1.42;;
78716;SDS011;68045;50.042;14.432;2024-03-29T15:59:59;2.30;;;1.20;;
78716;SDS011;68045;50.042;14.432;2024-03-29T16:04:00;1.95;;;1.10;;
78716;SDS011;68045;50.042;14.432;2024-03-29T16:08:01;4.45;;;1.90;;
78716;SDS011;68045;50.042;14.432;2024-03-29T16:12:02;2.47;;;1.20;;
78716;SDS011;68045;50.042;14.432;2024-03-29T16:16:05;2.33;;;1.30;;
78716;SDS011;68045;50.042;14.432;2024-03-29T16:20:06;1.73;;;1.20;;
78716;SDS011;68045;50.042;14.432;2024-03-29T16:24:08;1.67;;;1.02;;
78716;SDS011;68045;50.042;14.432;2024-03-29T16:28:12;3.75;;;1.40;;
78716;SDS011;68045;50.042;14.432;2024-03-29T16:32:15;6.50;;;1.58;;
78716;SDS011;68045;50.042;14.432;2024-03-29T16:36:16;2.90;;;1.85;;
78716;SDS011;68045;50.042;14.432;2024-03-29T16:40:17;2.63;;;1.50;;
78716;SDS011;68045;50.042;14.432;2024-03-29T16:44:18;3.10;;;1.20;;
78716;SDS011;68045;50.042;14.432;2024-03-29T16:48:19;2.17;;;1.42;;
78716;SDS011;68045;50.042;14.432;2024-03-29T16:52:20;3.03;;;1.48;;
78716;SDS011;68045;50.042;14.432;2024-03-29T16:56:22;2.97;;;1.45;;
78716;SDS011;68045;50.042;14.432;2024-03-29T17:00:23;5.68;;;1.40;;
78716;SDS011;68045;50.042;14.432;2024-03-29T17:08:26;4.15;;;1.77;;
78716;SDS011;68045;50.042;14.432;2024-03-29T17:12:27;3.85;;;1.63;;
78716;SDS011;68045;50.042;14.432;2024-03-29T17:16:28;3.20;;;1.50;;
78716;SDS011;68045;50.042;14.432;2024-03-29T17:20:29;2.30;;;1.50;;
78716;SDS011;68045;50.042;14.432;2024-03-29T17:24:30;3.92;;;1.67;;
78716;SDS011;68045;50.042;14.432;2024-03-29T17:28:31;4.97;;;1.73;;
78716;SDS011;68045;50.042;14.432;2024-03-29T17:32:31;3.88;;;1.75;;
78716;SDS011;68045;50.042;14.432;2024-03-29T17:36:32;3.33;;;1.70;;
78716;SDS011;68045;50.042;14.432;2024-03-29T17:40:33;5.45;;;1.70;;
78716;SDS011;68045;50.042;14.432;2024-03-29T17:44:34;3.38;;;1.80;;
78716;SDS011;68045;50.042;14.432;2024-03-29T17:48:35;4.85;;;1.83;;
78716;SDS011;68045;50.042;14.432;2024-03-29T17:52:37;3.30;;;1.88;;
78716;SDS011;68045;50.042;14.432;2024-03-29T17:56:39;3.30;;;1.80;;
78716;SDS011;68045;50.042;14.432;2024-03-29T18:00:40;4.80;;;1.90;;
78716;SDS011;68045;50.042;14.432;2024-03-29T18:04:41;3.95;;;2.17;;
78716;SDS011;68045;50.042;14.432;2024-03-29T18:08:42;3.05;;;1.70;;
78716;SDS011;68045;50.042;14.432;2024-03-29T18:12:43;5.82;;;2.10;;
78716;SDS011;68045;50.042;14.432;2024-03-29T18:16:44;5.13;;;2.00;;
78716;SDS011;68045;50.042;14.432;2024-03-29T18:20:45;4.57;;;2.10;;
78716;SDS011;68045;50.042;14.432;2024-03-29T18:24:47;5.18;;;2.08;;
78716;SDS011;68045;50.042;14.432;2024-03-29T18:28:48;4.03;;;2.05;;
78716;SDS011;68045;50.042;14.432;2024-03-29T18:32:49;5.32;;;2.30;;
78716;SDS011;68045;50.042;14.432;2024-03-29T18:36:50;3.33;;;2.08;;
78716;SDS011;68045;50.042;14.432;2024-03-29T18:40:51;3.40;;;2.20;;
78716;SDS011;68045;50.042;14.432;2024-03-29T18:44:52;4.18;;;2.22;;
78716;SDS011;68045;50.042;14.432;2024-03-29T18:48:54;3.97;;;2.08;;
78716;SDS011;68045;50.042;14.432;2024-03-29T18:52:54;6.85;;;2.80;;
78716;SDS011;68045;50.042;14.432;2024-03-29T18:56:55;7.88;;;3.15;;
78716;SDS011;68045;50.042;14.432;2024-03-29T19:00:58;7.32;;;2.80;;
78716;SDS011;68045;50.042;14.432;2024-03-29T19:04:59;5.85;;;2.60;;
78716;SDS011;68045;50.042;14.432;2024-03-29T19:09:01;4.47;;;2.30;;
78716;SDS011;68045;50.042;14.432;2024-03-29T19:13:02;5.88;;;2.50;;
78716;SDS011;68045;50.042;14.432;2024-03-29T19:17:03;7.78;;;2.78;;
78716;SDS011;68045;50.042;14.432;2024-03-29T19:21:04;4.97;;;2.90;;
78716;SDS011;68045;50.042;14.432;2024-03-29T19:25:05;6.50;;;3.33;;
78716;SDS011;68045;50.042;14.432;2024-03-29T19:29:07;6.43;;;2.67;;
78716;SDS011;68045;50.042;14.432;2024-03-29T19:33:08;5.35;;;3.15;;
78716;SDS011;68045;50.042;14.432;2024-03-29T19:37:09;5.72;;;3.05;;
78716;SDS011;68045;50.042;14.432;2024-03-29T19:41:10;7.97;;;2.92;;
78716;SDS011;68045;50.042;14.432;2024-03-29T19:45:11;6.47;;;3.10;;
78716;SDS011;68045;50.042;14.432;2024-03-29T19:49:12;5.03;;;2.50;;
78716;SDS011;68045;50.042;14.432;2024-03-29T19:53:18;6.75;;;2.70;;
78716;SDS011;68045;50.042;14.432;2024-03-29T19:57:19;7.95;;;2.60;;
78716;SDS011;68045;50.042;14.432;2024-03-29T20:01:20;5.55;;;2.70;;
78716;SDS011;68045;50.042;14.432;2024-03-29T20:05:20;5.53;;;2.80;;
78716;SDS011;68045;50.042;14.432;2024-03-29T20:09:21;6.45;;;2.85;;
78716;SDS011;68045;50.042;14.432;2024-03-29T20:13:23;8.95;;;2.80;;
78716;SDS011;68045;50.042;14.432;2024-03-29T20:17:24;6.88;;;3.60;;
78716;SDS011;68045;50.042;14.432;2024-03-29T20:21:25;6.65;;;2.95;;
78716;SDS011;68045;50.042;14.432;2024-03-29T20:25:26;6.25;;;2.95;;
78716;SDS011;68045;50.042;14.432;2024-03-29T20:29:27;7.05;;;2.72;;
78716;SDS011;68045;50.042;14.432;2024-03-29T20:33:30;5.32;;;2.70;;
78716;SDS011;68045;50.042;14.432;2024-03-29T20:37:31;5.72;;;2.60;;
78716;SDS011;68045;50.042;14.432;2024-03-29T20:41:32;5.57;;;2.92;;
78716;SDS011;68045;50.042;14.432;2024-03-29T20:45:33;6.18;;;2.97;;
78716;SDS011;68045;50.042;14.432;2024-03-29T20:49:34;8.75;;;3.25;;
78716;SDS011;68045;50.042;14.432;2024-03-29T20:53:36;5.45;;;2.88;;
78716;SDS011;68045;50.042;14.432;2024-03-29T20:57:38;7.13;;;2.58;;
78716;SDS011;68045;50.042;14.432;2024-03-29T21:01:38;9.32;;;2.97;;
78716;SDS011;68045;50.042;14.432;2024-03-29T21:05:58;8.63;;;3.20;;
78716;SDS011;68045;50.042;14.432;2024-03-29T21:09:59;7.00;;;3.10;;
78716;SDS011;68045;50.042;14.432;2024-03-29T21:14:00;9.15;;;3.28;;
78716;SDS011;68045;50.042;14.432;2024-03-29T21:18:01;6.80;;;3.13;;
78716;SDS011;68045;50.042;14.432;2024-03-29T21:22:04;6.00;;;3.03;;
78716;SDS011;68045;50.042;14.432;2024-03-29T21:26:05;6.47;;;3.00;;
78716;SDS011;68045;50.042;14.432;2024-03-29T21:30:09;5.93;;;3.00;;
78716;SDS011;68045;50.042;14.432;2024-03-29T21:34:13;5.47;;;2.88;;
78716;SDS011;68045;50.042;14.432;2024-03-29T21:38:14;6.88;;;2.92;;
78716;SDS011;68045;50.042;14.432;2024-03-29T21:42:15;5.78;;;2.70;;
78716;SDS011;68045;50.042;14.432;2024-03-29T21:46:19;8.70;;;2.88;;
78716;SDS011;68045;50.042;14.432;2024-03-29T21:50:20;8.52;;;3.50;;
78716;SDS011;68045;50.042;14.432;2024-03-29T21:54:21;5.82;;;3.13;;
78716;SDS011;68045;50.042;14.432;2024-03-29T21:58:23;6.93;;;3.63;;
78716;SDS011;68045;50.042;14.432;2024-03-29T22:02:23;6.68;;;3.75;;
78716;SDS011;68045;50.042;14.432;2024-03-29T22:06:24;5.78;;;3.15;;
78716;SDS011;68045;50.042;14.432;2024-03-29T22:10:25;6.78;;;3.08;;
78716;SDS011;68045;50.042;14.432;2024-03-29T22:14:26;7.55;;;3.13;;
78716;SDS011;68045;50.042;14.432;2024-03-29T22:18:28;8.05;;;2.92;;
78716;SDS011;68045;50.042;14.432;2024-03-29T22:22:29;5.60;;;2.83;;
78716;SDS011;68045;50.042;14.432;2024-03-29T22:26:31;7.03;;;2.97;;
78716;SDS011;68045;50.042;14.432;2024-03-29T22:30:32;9.55;;;3.38;;
78716;SDS011;68045;50.042;14.432;2024-03-29T22:34:33;8.10;;;3.55;;
78716;SDS011;68045;50.042;14.432;2024-03-29T22:38:34;13.63;;;3.55;;
78716;SDS011;68045;50.042;14.432;2024-03-29T22:42:35;6.53;;;3.67;;
78716;SDS011;68045;50.042;14.432;2024-03-29T22:46:36;6.75;;;2.97;;
78716;SDS011;68045;50.042;14.432;2024-03-29T22:50:37;10.27;;;3.28;;
78716;SDS011;68045;50.042;14.432;2024-03-29T22:54:38;10.20;;;3.97;;
78716;SDS011;68045;50.042;14.432;2024-03-29T22:58:39;10.65;;;3.78;;
78716;SDS011;68045;50.042;14.432;2024-03-29T23:02:41;8.23;;;3.75;;
78716;SDS011;68045;50.042;14.432;2024-03-29T23:06:42;10.05;;;3.05;;
78716;SDS011;68045;50.042;14.432;2024-03-29T23:10:43;8.07;;;2.83;;
78716;SDS011;68045;50.042;14.432;2024-03-29T23:14:44;6.57;;;2.78;;
78716;SDS011;68045;50.042;14.432;2024-03-29T23:18:45;8.02;;;2.90;;
78716;SDS011;68045;50.042;14.432;2024-03-29T23:22:46;8.02;;;3.03;;
78716;SDS011;68045;50.042;14.432;2024-03-29T23:26:47;5.70;;;2.63;;
78716;SDS011;68045;50.042;14.432;2024-03-29T23:30:48;6.45;;;2.80;;
78716;SDS011;68045;50.042;14.432;2024-03-29T23:34:50;6.68;;;2.67;;
78716;SDS011;68045;50.042;14.432;2024-03-29T23:38:51;5.90;;;2.83;;
78716;SDS011;68045;50.042;14.432;2024-03-29T23:42:52;6.30;;;3.20;;
78716;SDS011;68045;50.042;14.432;2024-03-29T23:46:53;6.97;;;3.45;;
78716;SDS011;68045;50.042;14.432;2024-03-29T23:50:54;7.80;;;2.95;;
78716;SDS011;68045;50.042;14.432;2024-03-29T23:54:59;7.88;;;3.60;;
78716;SDS011;68045;50.042;14.432;2024-03-29T23:59:02;8.38;;;3.33;;
